sensor_id;sensor_type;location;lat;lon;timestamp;P1;durP1;ratioP1;P2;durP2;ratioP2
30408;SDS011;17207;52.960;5.916;2022-11-23T00:00:58;1.45;;;0.90;;
30408;SDS011;17207;52.960;5.916;2022-11-23T00:03:24;1.38;;;0.98;;
30408;SDS011;17207;52.960;5.916;2022-11-23T00:05:50;1.10;;;0.93;;
30408;SDS011;17207;52.960;5.916;2022-11-23T00:08:16;1.60;;;1.00;;
30408;SDS011;17207;52.960;5.916;2022-11-23T00:10:42;0.95;;;0.85;;
30408;SDS011;17207;52.960;5.916;2022-11-23T00:13:08;1.08;;;0.90;;
30408;SDS011;17207;52.960;5.916;2022-11-23T00:15:34;1.95;;;1.05;;
30408;SDS011;17207;52.960;5.916;2022-11-23T00:18:00;1.38;;;1.00;;
30408;SDS011;17207;52.960;5.916;2022-11-23T00:20:26;0.93;;;0.82;;
30408;SDS011;17207;52.960;5.916;2022-11-23T00:22:52;2.38;;;0.98;;
30408;SDS011;17207;52.960;5.916;2022-11-23T00:25:18;1.00;;;0.90;;
30408;SDS011;17207;52.960;5.916;2022-11-23T00:27:44;1.15;;;0.88;;
30408;SDS011;17207;52.960;5.916;2022-11-23T00:30:10;1.30;;;0.90;;
30408;SDS011;17207;52.960;5.916;2022-11-23T00:32:37;1.42;;;0.90;;
30408;SDS011;17207;52.960;5.916;2022-11-23T00:35:03;1.00;;;0.90;;
30408;SDS011;17207;52.960;5.916;2022-11-23T00:37:29;1.33;;;0.90;;
30408;SDS011;17207;52.960;5.916;2022-11-23T00:39:55;1.23;;;0.90;;
30408;SDS011;17207;52.960;5.916;2022-11-23T00:42:21;0.98;;;0.90;;
30408;SDS011;17207;52.960;5.916;2022-11-23T00:44:47;1.67;;;1.20;;
30408;SDS011;17207;52.960;5.916;2022-11-23T00:47:13;2.75;;;1.48;;
30408;SDS011;17207;52.960;5.916;2022-11-23T00:49:39;1.63;;;0.88;;
30408;SDS011;17207;52.960;5.916;2022-11-23T00:52:05;1.30;;;1.00;;
30408;SDS011;17207;52.960;5.916;2022-11-23T00:54:31;0.90;;;0.90;;
30408;SDS011;17207;52.960;5.916;2022-11-23T00:56:57;1.23;;;1.08;;
30408;SDS011;17207;52.960;5.916;2022-11-23T00:59:23;0.95;;;0.85;;
30408;SDS011;17207;52.960;5.916;2022-11-23T01:01:49;1.45;;;0.80;;
30408;SDS011;17207;52.960;5.916;2022-11-23T01:04:15;2.00;;;1.00;;
30408;SDS011;17207;52.960;5.916;2022-11-23T01:06:41;1.10;;;1.00;;
30408;SDS011;17207;52.960;5.916;2022-11-23T01:09:10;1.55;;;1.02;;
30408;SDS011;17207;52.960;5.916;2022-11-23T01:11:37;1.20;;;1.10;;
30408;SDS011;17207;52.960;5.916;2022-11-23T01:14:03;1.55;;;1.02;;
30408;SDS011;17207;52.960;5.916;2022-11-23T01:16:33;1.75;;;1.30;;
30408;SDS011;17207;52.960;5.916;2022-11-23T01:19:06;1.35;;;1.10;;
30408;SDS011;17207;52.960;5.916;2022-11-23T01:21:33;1.30;;;0.98;;
30408;SDS011;17207;52.960;5.916;2022-11-23T01:23:59;0.80;;;0.70;;
30408;SDS011;17207;52.960;5.916;2022-11-23T01:26:25;2.30;;;1.13;;
30408;SDS011;17207;52.960;5.916;2022-11-23T01:28:51;1.23;;;0.95;;
30408;SDS011;17207;52.960;5.916;2022-11-23T01:31:18;2.63;;;1.25;;
30408;SDS011;17207;52.960;5.916;2022-11-23T01:33:45;2.33;;;1.10;;
30408;SDS011;17207;52.960;5.916;2022-11-23T01:36:12;1.25;;;1.00;;
30408;SDS011;17207;52.960;5.916;2022-11-23T01:38:38;1.93;;;1.30;;
30408;SDS011;17207;52.960;5.916;2022-11-23T01:41:05;0.88;;;0.80;;
30408;SDS011;17207;52.960;5.916;2022-11-23T01:43:32;1.25;;;1.00;;
30408;SDS011;17207;52.960;5.916;2022-11-23T01:45:58;2.83;;;1.10;;
30408;SDS011;17207;52.960;5.916;2022-11-23T01:50:54;2.38;;;1.08;;
30408;SDS011;17207;52.960;5.916;2022-11-23T01:53:21;1.80;;;1.20;;
30408;SDS011;17207;52.960;5.916;2022-11-23T01:55:47;1.33;;;1.00;;
30408;SDS011;17207;52.960;5.916;2022-11-23T01:58:14;1.20;;;1.00;;
30408;SDS011;17207;52.960;5.916;2022-11-23T02:00:41;1.63;;;1.10;;
30408;SDS011;17207;52.960;5.916;2022-11-23T02:03:07;0.90;;;0.90;;
30408;SDS011;17207;52.960;5.916;2022-11-23T02:05:35;1.65;;;1.10;;
30408;SDS011;17207;52.960;5.916;2022-11-23T02:08:02;2.15;;;1.10;;
30408;SDS011;17207;52.960;5.916;2022-11-23T02:10:29;1.98;;;0.98;;
30408;SDS011;17207;52.960;5.916;2022-11-23T02:12:59;1.38;;;1.27;;
30408;SDS011;17207;52.960;5.916;2022-11-23T02:15:25;1.25;;;1.10;;
30408;SDS011;17207;52.960;5.916;2022-11-23T02:17:51;1.75;;;1.15;;
30408;SDS011;17207;52.960;5.916;2022-11-23T02:20:17;1.73;;;1.23;;
30408;SDS011;17207;52.960;5.916;2022-11-23T02:25:15;1.33;;;1.08;;
30408;SDS011;17207;52.960;5.916;2022-11-23T02:27:44;2.08;;;1.10;;
30408;SDS011;17207;52.960;5.916;2022-11-23T02:30:10;1.35;;;1.05;;
30408;SDS011;17207;52.960;5.916;2022-11-23T02:32:36;1.70;;;0.93;;
30408;SDS011;17207;52.960;5.916;2022-11-23T02:35:03;1.73;;;1.20;;
30408;SDS011;17207;52.960;5.916;2022-11-23T02:37:29;1.73;;;1.20;;
30408;SDS011;17207;52.960;5.916;2022-11-23T02:39:55;1.30;;;1.00;;
30408;SDS011;17207;52.960;5.916;2022-11-23T02:42:22;1.30;;;1.00;;
30408;SDS011;17207;52.960;5.916;2022-11-23T02:47:16;1.55;;;1.38;;
30408;SDS011;17207;52.960;5.916;2022-11-23T02:49:44;1.70;;;1.33;;
30408;SDS011;17207;52.960;5.916;2022-11-23T02:52:11;1.88;;;1.20;;
30408;SDS011;17207;52.960;5.916;2022-11-23T02:54:37;1.80;;;1.02;;
30408;SDS011;17207;52.960;5.916;2022-11-23T02:57:03;1.98;;;1.10;;
30408;SDS011;17207;52.960;5.916;2022-11-23T02:59:29;1.58;;;1.48;;
30408;SDS011;17207;52.960;5.916;2022-11-23T03:01:57;1.50;;;1.20;;
30408;SDS011;17207;52.960;5.916;2022-11-23T03:04:23;3.08;;;1.65;;
30408;SDS011;17207;52.960;5.916;2022-11-23T03:06:49;1.50;;;1.17;;
30408;SDS011;17207;52.960;5.916;2022-11-23T03:09:15;1.95;;;1.25;;
30408;SDS011;17207;52.960;5.916;2022-11-23T03:11:41;1.58;;;1.08;;
30408;SDS011;17207;52.960;5.916;2022-11-23T03:14:07;1.70;;;1.33;;
30408;SDS011;17207;52.960;5.916;2022-11-23T03:16:33;2.08;;;1.55;;
30408;SDS011;17207;52.960;5.916;2022-11-23T03:18:59;1.95;;;1.40;;
30408;SDS011;17207;52.960;5.916;2022-11-23T03:21:25;1.95;;;1.30;;
30408;SDS011;17207;52.960;5.916;2022-11-23T03:23:51;1.52;;;1.38;;
30408;SDS011;17207;52.960;5.916;2022-11-23T03:26:17;1.48;;;1.38;;
30408;SDS011;17207;52.960;5.916;2022-11-23T03:28:43;1.60;;;1.40;;
30408;SDS011;17207;52.960;5.916;2022-11-23T03:31:09;5.00;;;1.58;;
30408;SDS011;17207;52.960;5.916;2022-11-23T03:33:35;2.97;;;1.55;;
30408;SDS011;17207;52.960;5.916;2022-11-23T03:36:01;1.98;;;1.30;;
30408;SDS011;17207;52.960;5.916;2022-11-23T03:38:27;2.35;;;1.48;;
30408;SDS011;17207;52.960;5.916;2022-11-23T03:40:53;2.67;;;1.50;;
30408;SDS011;17207;52.960;5.916;2022-11-23T03:43:19;2.53;;;1.63;;
30408;SDS011;17207;52.960;5.916;2022-11-23T03:45:46;1.42;;;1.15;;
30408;SDS011;17207;52.960;5.916;2022-11-23T03:48:12;1.88;;;1.60;;
30408;SDS011;17207;52.960;5.916;2022-11-23T03:50:38;1.55;;;1.33;;
30408;SDS011;17207;52.960;5.916;2022-11-23T03:53:05;2.65;;;1.60;;
30408;SDS011;17207;52.960;5.916;2022-11-23T03:55:31;2.45;;;1.45;;
30408;SDS011;17207;52.960;5.916;2022-11-23T03:57:57;1.70;;;1.60;;
30408;SDS011;17207;52.960;5.916;2022-11-23T04:00:26;2.65;;;1.52;;
30408;SDS011;17207;52.960;5.916;2022-11-23T04:02:52;2.28;;;1.70;;
30408;SDS011;17207;52.960;5.916;2022-11-23T04:05:18;1.75;;;1.33;;
30408;SDS011;17207;52.960;5.916;2022-11-23T04:07:45;1.60;;;1.50;;
30408;SDS011;17207;52.960;5.916;2022-11-23T04:10:13;3.53;;;2.00;;
30408;SDS011;17207;52.960;5.916;2022-11-23T04:12:39;1.90;;;1.48;;
30408;SDS011;17207;52.960;5.916;2022-11-23T04:15:05;5.05;;;1.70;;
30408;SDS011;17207;52.960;5.916;2022-11-23T04:17:31;2.03;;;1.65;;
30408;SDS011;17207;52.960;5.916;2022-11-23T04:19:57;2.53;;;1.77;;
30408;SDS011;17207;52.960;5.916;2022-11-23T04:22:26;1.80;;;1.58;;
30408;SDS011;17207;52.960;5.916;2022-11-23T04:24:52;2.95;;;1.60;;
30408;SDS011;17207;52.960;5.916;2022-11-23T04:27:28;1.80;;;1.50;;
30408;SDS011;17207;52.960;5.916;2022-11-23T04:29:54;2.00;;;1.42;;
30408;SDS011;17207;52.960;5.916;2022-11-23T04:32:20;2.20;;;1.70;;
30408;SDS011;17207;52.960;5.916;2022-11-23T04:34:46;3.10;;;1.55;;
30408;SDS011;17207;52.960;5.916;2022-11-23T04:37:12;2.88;;;1.80;;
30408;SDS011;17207;52.960;5.916;2022-11-23T04:39:38;2.08;;;1.85;;
30408;SDS011;17207;52.960;5.916;2022-11-23T04:42:04;2.55;;;1.67;;
30408;SDS011;17207;52.960;5.916;2022-11-23T04:44:30;2.00;;;1.80;;
30408;SDS011;17207;52.960;5.916;2022-11-23T04:46:56;2.38;;;1.90;;
30408;SDS011;17207;52.960;5.916;2022-11-23T04:49:22;1.98;;;1.65;;
30408;SDS011;17207;52.960;5.916;2022-11-23T04:51:48;2.22;;;1.67;;
30408;SDS011;17207;52.960;5.916;2022-11-23T04:54:14;2.38;;;1.80;;
30408;SDS011;17207;52.960;5.916;2022-11-23T04:56:40;1.80;;;1.60;;
30408;SDS011;17207;52.960;5.916;2022-11-23T04:59:06;3.42;;;2.30;;
30408;SDS011;17207;52.960;5.916;2022-11-23T05:01:32;3.58;;;2.28;;
30408;SDS011;17207;52.960;5.916;2022-11-23T05:03:58;3.15;;;2.10;;
30408;SDS011;17207;52.960;5.916;2022-11-23T05:06:24;2.78;;;2.30;;
30408;SDS011;17207;52.960;5.916;2022-11-23T05:08:50;2.30;;;2.10;;
30408;SDS011;17207;52.960;5.916;2022-11-23T05:11:16;2.58;;;2.35;;
30408;SDS011;17207;52.960;5.916;2022-11-23T05:13:43;2.93;;;2.30;;
30408;SDS011;17207;52.960;5.916;2022-11-23T05:16:09;3.08;;;2.22;;
30408;SDS011;17207;52.960;5.916;2022-11-23T05:18:35;2.60;;;2.17;;
30408;SDS011;17207;52.960;5.916;2022-11-23T05:21:01;3.03;;;2.05;;
30408;SDS011;17207;52.960;5.916;2022-11-23T05:23:28;3.42;;;2.65;;
30408;SDS011;17207;52.960;5.916;2022-11-23T05:25:54;3.17;;;2.40;;
30408;SDS011;17207;52.960;5.916;2022-11-23T05:28:20;2.80;;;2.38;;
30408;SDS011;17207;52.960;5.916;2022-11-23T05:30:46;3.20;;;2.30;;
30408;SDS011;17207;52.960;5.916;2022-11-23T05:33:12;2.90;;;2.45;;
30408;SDS011;17207;52.960;5.916;2022-11-23T05:35:38;2.53;;;1.98;;
30408;SDS011;17207;52.960;5.916;2022-11-23T05:38:04;2.88;;;2.20;;
30408;SDS011;17207;52.960;5.916;2022-11-23T05:40:30;2.60;;;2.40;;
30408;SDS011;17207;52.960;5.916;2022-11-23T05:42:57;2.88;;;2.20;;
30408;SDS011;17207;52.960;5.916;2022-11-23T05:45:23;3.55;;;2.50;;
30408;SDS011;17207;52.960;5.916;2022-11-23T05:47:53;3.03;;;2.42;;
30408;SDS011;17207;52.960;5.916;2022-11-23T05:50:19;4.35;;;2.58;;
30408;SDS011;17207;52.960;5.916;2022-11-23T05:52:45;2.78;;;2.58;;
30408;SDS011;17207;52.960;5.916;2022-11-23T05:55:12;2.35;;;2.10;;
30408;SDS011;17207;52.960;5.916;2022-11-23T05:57:38;3.67;;;2.55;;
30408;SDS011;17207;52.960;5.916;2022-11-23T06:00:04;4.45;;;2.35;;
30408;SDS011;17207;52.960;5.916;2022-11-23T06:02:30;2.13;;;1.92;;
30408;SDS011;17207;52.960;5.916;2022-11-23T06:04:56;3.58;;;2.80;;
30408;SDS011;17207;52.960;5.916;2022-11-23T06:07:22;3.33;;;2.67;;
30408;SDS011;17207;52.960;5.916;2022-11-23T06:09:48;2.85;;;2.25;;
30408;SDS011;17207;52.960;5.916;2022-11-23T06:12:14;2.90;;;2.30;;
30408;SDS011;17207;52.960;5.916;2022-11-23T06:14:40;2.65;;;2.22;;
30408;SDS011;17207;52.960;5.916;2022-11-23T06:17:06;2.33;;;2.10;;
30408;SDS011;17207;52.960;5.916;2022-11-23T06:19:32;3.28;;;2.30;;
30408;SDS011;17207;52.960;5.916;2022-11-23T06:21:59;2.72;;;2.20;;
30408;SDS011;17207;52.960;5.916;2022-11-23T06:24:25;2.60;;;2.25;;
30408;SDS011;17207;52.960;5.916;2022-11-23T06:26:51;2.55;;;2.30;;
30408;SDS011;17207;52.960;5.916;2022-11-23T06:29:18;3.55;;;2.30;;
30408;SDS011;17207;52.960;5.916;2022-11-23T06:31:44;2.38;;;2.17;;
30408;SDS011;17207;52.960;5.916;2022-11-23T06:34:10;2.72;;;2.00;;
30408;SDS011;17207;52.960;5.916;2022-11-23T06:36:37;2.70;;;2.30;;
30408;SDS011;17207;52.960;5.916;2022-11-23T06:39:03;4.32;;;2.45;;
30408;SDS011;17207;52.960;5.916;2022-11-23T06:41:29;3.05;;;1.95;;
30408;SDS011;17207;52.960;5.916;2022-11-23T06:43:55;2.45;;;2.25;;
30408;SDS011;17207;52.960;5.916;2022-11-23T06:46:21;2.58;;;2.20;;
30408;SDS011;17207;52.960;5.916;2022-11-23T06:48:47;5.10;;;2.17;;
30408;SDS011;17207;52.960;5.916;2022-11-23T06:51:13;5.13;;;2.13;;
30408;SDS011;17207;52.960;5.916;2022-11-23T06:53:39;2.88;;;2.15;;
30408;SDS011;17207;52.960;5.916;2022-11-23T06:56:06;2.38;;;2.00;;
30408;SDS011;17207;52.960;5.916;2022-11-23T06:58:32;2.03;;;1.80;;
30408;SDS011;17207;52.960;5.916;2022-11-23T07:00:59;2.60;;;2.17;;
30408;SDS011;17207;52.960;5.916;2022-11-23T07:03:25;2.20;;;2.00;;
30408;SDS011;17207;52.960;5.916;2022-11-23T07:05:52;2.53;;;1.80;;
30408;SDS011;17207;52.960;5.916;2022-11-23T07:08:18;2.47;;;1.85;;
30408;SDS011;17207;52.960;5.916;2022-11-23T07:10:44;2.60;;;2.10;;
30408;SDS011;17207;52.960;5.916;2022-11-23T07:13:10;2.33;;;1.98;;
30408;SDS011;17207;52.960;5.916;2022-11-23T07:15:37;2.53;;;2.00;;
30408;SDS011;17207;52.960;5.916;2022-11-23T07:18:03;2.50;;;2.05;;
30408;SDS011;17207;52.960;5.916;2022-11-23T07:20:30;3.10;;;2.00;;
30408;SDS011;17207;52.960;5.916;2022-11-23T07:25:25;2.60;;;2.00;;
30408;SDS011;17207;52.960;5.916;2022-11-23T07:27:55;4.60;;;1.80;;
30408;SDS011;17207;52.960;5.916;2022-11-23T07:30:22;2.60;;;1.80;;
30408;SDS011;17207;52.960;5.916;2022-11-23T07:32:48;2.70;;;1.85;;
30408;SDS011;17207;52.960;5.916;2022-11-23T07:35:14;3.00;;;2.00;;
30408;SDS011;17207;52.960;5.916;2022-11-23T07:37:40;1.67;;;1.58;;
30408;SDS011;17207;52.960;5.916;2022-11-23T07:40:06;1.80;;;1.52;;
30408;SDS011;17207;52.960;5.916;2022-11-23T07:42:32;2.67;;;1.73;;
30408;SDS011;17207;52.960;5.916;2022-11-23T07:44:58;2.20;;;1.88;;
30408;SDS011;17207;52.960;5.916;2022-11-23T07:47:24;3.78;;;1.83;;
30408;SDS011;17207;52.960;5.916;2022-11-23T07:49:50;3.60;;;1.83;;
30408;SDS011;17207;52.960;5.916;2022-11-23T07:52:16;3.95;;;1.85;;
30408;SDS011;17207;52.960;5.916;2022-11-23T07:54:42;4.45;;;1.83;;
30408;SDS011;17207;52.960;5.916;2022-11-23T07:57:09;2.60;;;1.85;;
30408;SDS011;17207;52.960;5.916;2022-11-23T07:59:35;2.05;;;1.70;;
30408;SDS011;17207;52.960;5.916;2022-11-23T08:02:01;2.97;;;1.75;;
30408;SDS011;17207;52.960;5.916;2022-11-23T08:04:27;2.42;;;1.88;;
30408;SDS011;17207;52.960;5.916;2022-11-23T08:06:54;4.63;;;1.95;;
30408;SDS011;17207;52.960;5.916;2022-11-23T08:09:20;4.00;;;1.98;;
30408;SDS011;17207;52.960;5.916;2022-11-23T08:11:46;5.43;;;1.98;;
30408;SDS011;17207;52.960;5.916;2022-11-23T08:14:12;4.13;;;1.92;;
30408;SDS011;17207;52.960;5.916;2022-11-23T08:16:38;3.65;;;1.98;;
30408;SDS011;17207;52.960;5.916;2022-11-23T08:19:04;1.45;;;1.35;;
30408;SDS011;17207;52.960;5.916;2022-11-23T08:21:30;2.50;;;1.73;;
30408;SDS011;17207;52.960;5.916;2022-11-23T08:23:56;2.00;;;1.80;;
30408;SDS011;17207;52.960;5.916;2022-11-23T08:26:22;2.03;;;1.70;;
30408;SDS011;17207;52.960;5.916;2022-11-23T08:28:48;5.43;;;2.28;;
30408;SDS011;17207;52.960;5.916;2022-11-23T08:31:14;3.25;;;1.77;;
30408;SDS011;17207;52.960;5.916;2022-11-23T08:33:40;2.25;;;1.77;;
30408;SDS011;17207;52.960;5.916;2022-11-23T08:36:07;2.70;;;1.85;;
30408;SDS011;17207;52.960;5.916;2022-11-23T08:38:33;2.92;;;1.73;;
30408;SDS011;17207;52.960;5.916;2022-11-23T08:40:59;3.65;;;2.10;;
30408;SDS011;17207;52.960;5.916;2022-11-23T08:43:26;2.88;;;1.98;;
30408;SDS011;17207;52.960;5.916;2022-11-23T08:45:56;1.92;;;1.83;;
30408;SDS011;17207;52.960;5.916;2022-11-23T08:48:22;3.33;;;1.70;;
30408;SDS011;17207;52.960;5.916;2022-11-23T08:50:48;2.88;;;1.90;;
30408;SDS011;17207;52.960;5.916;2022-11-23T08:53:15;2.75;;;1.90;;
30408;SDS011;17207;52.960;5.916;2022-11-23T08:55:41;7.03;;;2.08;;
30408;SDS011;17207;52.960;5.916;2022-11-23T08:58:07;2.60;;;1.70;;
30408;SDS011;17207;52.960;5.916;2022-11-23T09:00:33;2.83;;;1.90;;
30408;SDS011;17207;52.960;5.916;2022-11-23T09:02:59;2.42;;;1.75;;
30408;SDS011;17207;52.960;5.916;2022-11-23T09:05:26;2.10;;;1.80;;
30408;SDS011;17207;52.960;5.916;2022-11-23T09:07:53;2.40;;;1.60;;
30408;SDS011;17207;52.960;5.916;2022-11-23T09:10:19;1.60;;;1.50;;
30408;SDS011;17207;52.960;5.916;2022-11-23T09:12:48;2.97;;;1.60;;
30408;SDS011;17207;52.960;5.916;2022-11-23T09:15:14;2.72;;;1.50;;
30408;SDS011;17207;52.960;5.916;2022-11-23T09:17:40;2.85;;;1.73;;
30408;SDS011;17207;52.960;5.916;2022-11-23T09:20:06;3.05;;;1.80;;
30408;SDS011;17207;52.960;5.916;2022-11-23T09:22:32;2.67;;;1.70;;
30408;SDS011;17207;52.960;5.916;2022-11-23T09:24:58;2.97;;;1.73;;
30408;SDS011;17207;52.960;5.916;2022-11-23T09:27:24;2.55;;;1.65;;
30408;SDS011;17207;52.960;5.916;2022-11-23T09:29:50;3.45;;;1.55;;
30408;SDS011;17207;52.960;5.916;2022-11-23T09:32:16;2.78;;;1.70;;
30408;SDS011;17207;52.960;5.916;2022-11-23T09:34:42;2.97;;;1.75;;
30408;SDS011;17207;52.960;5.916;2022-11-23T09:37:09;2.65;;;1.77;;
30408;SDS011;17207;52.960;5.916;2022-11-23T09:39:35;2.92;;;1.70;;
30408;SDS011;17207;52.960;5.916;2022-11-23T09:52:27;2.70;;;1.70;;
30408;SDS011;17207;52.960;5.916;2022-11-23T09:54:54;2.60;;;1.80;;
30408;SDS011;17207;52.960;5.916;2022-11-23T09:57:25;2.53;;;1.73;;
30408;SDS011;17207;52.960;5.916;2022-11-23T09:59:54;3.00;;;1.52;;
30408;SDS011;17207;52.960;5.916;2022-11-23T10:02:23;2.47;;;1.67;;
30408;SDS011;17207;52.960;5.916;2022-11-23T10:04:53;3.38;;;1.67;;
30408;SDS011;17207;52.960;5.916;2022-11-23T10:15:25;2.33;;;1.50;;
30408;SDS011;17207;52.960;5.916;2022-11-23T10:25:51;2.17;;;1.80;;
30408;SDS011;17207;52.960;5.916;2022-11-23T10:28:19;2.38;;;1.80;;
30408;SDS011;17207;52.960;5.916;2022-11-23T10:30:46;2.80;;;1.80;;
30408;SDS011;17207;52.960;5.916;2022-11-23T10:33:20;2.67;;;1.73;;
30408;SDS011;17207;52.960;5.916;2022-11-23T10:35:49;3.05;;;1.58;;
30408;SDS011;17207;52.960;5.916;2022-11-23T10:38:16;2.72;;;1.67;;
30408;SDS011;17207;52.960;5.916;2022-11-23T10:41:05;1.40;;;1.30;;
30408;SDS011;17207;52.960;5.916;2022-11-23T10:43:31;1.60;;;1.50;;
30408;SDS011;17207;52.960;5.916;2022-11-23T10:48:44;2.10;;;1.45;;
30408;SDS011;17207;52.960;5.916;2022-11-23T10:51:14;1.83;;;1.50;;
30408;SDS011;17207;52.960;5.916;2022-11-23T10:53:41;2.15;;;1.50;;
30408;SDS011;17207;52.960;5.916;2022-11-23T10:56:11;1.30;;;1.20;;
30408;SDS011;17207;52.960;5.916;2022-11-23T10:58:44;1.45;;;1.27;;
30408;SDS011;17207;52.960;5.916;2022-11-23T11:01:12;2.05;;;1.33;;
30408;SDS011;17207;52.960;5.916;2022-11-23T11:03:39;1.40;;;1.30;;
30408;SDS011;17207;52.960;5.916;2022-11-23T11:06:05;5.32;;;1.77;;
30408;SDS011;17207;52.960;5.916;2022-11-23T11:08:35;1.45;;;1.27;;
30408;SDS011;17207;52.960;5.916;2022-11-23T11:11:03;3.00;;;1.60;;
30408;SDS011;17207;52.960;5.916;2022-11-23T11:16:00;1.77;;;1.10;;
30408;SDS011;17207;52.960;5.916;2022-11-23T11:18:27;2.55;;;1.40;;
30408;SDS011;17207;52.960;5.916;2022-11-23T11:20:55;1.77;;;1.30;;
30408;SDS011;17207;52.960;5.916;2022-11-23T11:23:21;2.47;;;1.13;;
30408;SDS011;17207;52.960;5.916;2022-11-23T11:25:47;1.65;;;1.27;;
30408;SDS011;17207;52.960;5.916;2022-11-23T11:33:25;3.05;;;1.30;;
30408;SDS011;17207;52.960;5.916;2022-11-23T11:35:54;2.42;;;1.30;;
30408;SDS011;17207;52.960;5.916;2022-11-23T11:38:26;1.75;;;1.30;;
30408;SDS011;17207;52.960;5.916;2022-11-23T11:40:53;3.17;;;1.45;;
30408;SDS011;17207;52.960;5.916;2022-11-23T11:45:49;2.13;;;1.33;;
30408;SDS011;17207;52.960;5.916;2022-11-23T11:48:26;2.03;;;1.50;;
30408;SDS011;17207;52.960;5.916;2022-11-23T11:50:57;2.50;;;1.45;;
30408;SDS011;17207;52.960;5.916;2022-11-23T11:56:06;1.75;;;1.42;;
30408;SDS011;17207;52.960;5.916;2022-11-23T11:58:36;3.00;;;1.20;;
30408;SDS011;17207;52.960;5.916;2022-11-23T12:01:06;2.00;;;1.40;;
30408;SDS011;17207;52.960;5.916;2022-11-23T12:06:10;1.45;;;1.20;;
30408;SDS011;17207;52.960;5.916;2022-11-23T12:11:04;3.78;;;1.35;;
30408;SDS011;17207;52.960;5.916;2022-11-23T12:13:32;2.42;;;1.67;;
30408;SDS011;17207;52.960;5.916;2022-11-23T12:16:21;2.05;;;1.45;;
30408;SDS011;17207;52.960;5.916;2022-11-23T12:18:59;3.47;;;1.50;;
30408;SDS011;17207;52.960;5.916;2022-11-23T12:24:19;1.80;;;1.25;;
30408;SDS011;17207;52.960;5.916;2022-11-23T12:26:55;3.33;;;1.50;;
30408;SDS011;17207;52.960;5.916;2022-11-23T12:29:36;1.80;;;1.30;;
30408;SDS011;17207;52.960;5.916;2022-11-23T12:42:11;3.28;;;1.67;;
30408;SDS011;17207;52.960;5.916;2022-11-23T12:45:05;3.75;;;1.65;;
30408;SDS011;17207;52.960;5.916;2022-11-23T12:57:48;3.80;;;1.77;;
30408;SDS011;17207;52.960;5.916;2022-11-23T13:00:18;2.90;;;1.52;;
30408;SDS011;17207;52.960;5.916;2022-11-23T13:08:01;2.70;;;1.55;;
30408;SDS011;17207;52.960;5.916;2022-11-23T13:18:52;3.72;;;1.70;;
30408;SDS011;17207;52.960;5.916;2022-11-23T13:23:47;2.97;;;1.55;;
30408;SDS011;17207;52.960;5.916;2022-11-23T13:26:15;1.85;;;1.23;;
30408;SDS011;17207;52.960;5.916;2022-11-23T13:28:41;3.42;;;1.52;;
30408;SDS011;17207;52.960;5.916;2022-11-23T13:33:40;2.55;;;1.45;;
30408;SDS011;17207;52.960;5.916;2022-11-23T13:36:10;4.00;;;1.65;;
30408;SDS011;17207;52.960;5.916;2022-11-23T13:41:03;2.80;;;1.65;;
30408;SDS011;17207;52.960;5.916;2022-11-23T13:43:49;4.47;;;1.75;;
30408;SDS011;17207;52.960;5.916;2022-11-23T13:46:22;3.25;;;1.50;;
30408;SDS011;17207;52.960;5.916;2022-11-23T13:48:53;4.13;;;1.70;;
30408;SDS011;17207;52.960;5.916;2022-11-23T13:51:23;4.95;;;1.50;;
30408;SDS011;17207;52.960;5.916;2022-11-23T13:53:51;3.22;;;1.30;;
30408;SDS011;17207;52.960;5.916;2022-11-23T14:04:25;4.50;;;1.70;;
30408;SDS011;17207;52.960;5.916;2022-11-23T14:07:01;3.00;;;1.40;;
30408;SDS011;17207;52.960;5.916;2022-11-23T14:24:53;4.38;;;1.60;;
30408;SDS011;17207;52.960;5.916;2022-11-23T14:27:26;3.28;;;1.33;;
30408;SDS011;17207;52.960;5.916;2022-11-23T14:37:59;5.50;;;1.80;;
30408;SDS011;17207;52.960;5.916;2022-11-23T14:43:00;1.92;;;1.33;;
30408;SDS011;17207;52.960;5.916;2022-11-23T14:45:27;2.00;;;1.30;;
30408;SDS011;17207;52.960;5.916;2022-11-23T14:47:54;2.17;;;1.40;;
30408;SDS011;17207;52.960;5.916;2022-11-23T14:52:47;3.25;;;1.60;;
30408;SDS011;17207;52.960;5.916;2022-11-23T14:55:14;4.63;;;1.40;;
30408;SDS011;17207;52.960;5.916;2022-11-23T14:57:42;2.03;;;1.35;;
30408;SDS011;17207;52.960;5.916;2022-11-23T15:00:22;4.60;;;1.65;;
30408;SDS011;17207;52.960;5.916;2022-11-23T15:02:49;1.95;;;1.23;;
30408;SDS011;17207;52.960;5.916;2022-11-23T15:05:18;3.42;;;1.58;;
30408;SDS011;17207;52.960;5.916;2022-11-23T15:08:04;5.93;;;1.80;;
30408;SDS011;17207;52.960;5.916;2022-11-23T15:10:51;6.45;;;1.80;;
30408;SDS011;17207;52.960;5.916;2022-11-23T15:13:23;5.70;;;1.40;;
30408;SDS011;17207;52.960;5.916;2022-11-23T15:15:50;4.13;;;1.48;;
30408;SDS011;17207;52.960;5.916;2022-11-23T15:18:29;4.25;;;2.72;;
30408;SDS011;17207;52.960;5.916;2022-11-23T15:20:56;8.07;;;5.10;;
30408;SDS011;17207;52.960;5.916;2022-11-23T15:23:23;5.60;;;5.07;;
30408;SDS011;17207;52.960;5.916;2022-11-23T15:25:54;8.88;;;5.63;;
30408;SDS011;17207;52.960;5.916;2022-11-23T15:28:25;9.32;;;6.80;;
30408;SDS011;17207;52.960;5.916;2022-11-23T15:30:52;8.35;;;6.70;;
30408;SDS011;17207;52.960;5.916;2022-11-23T15:33:18;8.82;;;6.97;;
30408;SDS011;17207;52.960;5.916;2022-11-23T15:35:45;9.13;;;7.25;;
30408;SDS011;17207;52.960;5.916;2022-11-23T15:38:12;7.93;;;7.03;;
30408;SDS011;17207;52.960;5.916;2022-11-23T15:40:40;7.65;;;6.82;;
30408;SDS011;17207;52.960;5.916;2022-11-23T15:46:02;9.10;;;6.60;;
30408;SDS011;17207;52.960;5.916;2022-11-23T15:48:32;11.13;;;7.60;;
30408;SDS011;17207;52.960;5.916;2022-11-23T15:51:03;7.60;;;6.38;;
30408;SDS011;17207;52.960;5.916;2022-11-23T15:53:31;7.22;;;6.53;;
30408;SDS011;17207;52.960;5.916;2022-11-23T15:56:04;7.88;;;7.07;;
30408;SDS011;17207;52.960;5.916;2022-11-23T15:58:30;7.88;;;6.75;;
30408;SDS011;17207;52.960;5.916;2022-11-23T16:03:53;7.00;;;6.30;;
30408;SDS011;17207;52.960;5.916;2022-11-23T16:08:50;6.97;;;6.18;;
30408;SDS011;17207;52.960;5.916;2022-11-23T16:13:45;7.00;;;6.40;;
30408;SDS011;17207;52.960;5.916;2022-11-23T16:16:13;6.95;;;6.25;;
30408;SDS011;17207;52.960;5.916;2022-11-23T16:18:43;6.73;;;6.13;;
30408;SDS011;17207;52.960;5.916;2022-11-23T16:21:11;6.72;;;6.13;;
30408;SDS011;17207;52.960;5.916;2022-11-23T16:26:10;8.40;;;6.05;;
30408;SDS011;17207;52.960;5.916;2022-11-23T16:28:37;6.85;;;5.95;;
30408;SDS011;17207;52.960;5.916;2022-11-23T16:31:04;6.90;;;6.30;;
30408;SDS011;17207;52.960;5.916;2022-11-23T16:33:30;6.25;;;5.65;;
30408;SDS011;17207;52.960;5.916;2022-11-23T16:35:58;6.72;;;6.13;;
30408;SDS011;17207;52.960;5.916;2022-11-23T16:38:24;6.35;;;5.75;;
30408;SDS011;17207;52.960;5.916;2022-11-23T16:40:50;6.07;;;5.57;;
30408;SDS011;17207;52.960;5.916;2022-11-23T16:43:16;6.35;;;5.75;;
30408;SDS011;17207;52.960;5.916;2022-11-23T16:45:43;6.85;;;6.25;;
30408;SDS011;17207;52.960;5.916;2022-11-23T16:48:42;6.20;;;5.60;;
30408;SDS011;17207;52.960;5.916;2022-11-23T16:51:02;6.85;;;6.25;;
30408;SDS011;17207;52.960;5.916;2022-11-23T16:53:28;6.50;;;5.90;;
30408;SDS011;17207;52.960;5.916;2022-11-23T16:55:55;6.53;;;5.93;;
30408;SDS011;17207;52.960;5.916;2022-11-23T16:58:22;6.17;;;5.57;;
30408;SDS011;17207;52.960;5.916;2022-11-23T17:00:48;6.80;;;6.10;;
30408;SDS011;17207;52.960;5.916;2022-11-23T17:03:15;6.38;;;5.78;;
30408;SDS011;17207;52.960;5.916;2022-11-23T17:05:41;5.93;;;5.32;;
30408;SDS011;17207;52.960;5.916;2022-11-23T17:08:07;5.93;;;5.32;;
30408;SDS011;17207;52.960;5.916;2022-11-23T17:10:34;6.70;;;6.03;;
30408;SDS011;17207;52.960;5.916;2022-11-23T17:15:28;6.35;;;5.75;;
30408;SDS011;17207;52.960;5.916;2022-11-23T17:17:55;6.85;;;6.13;;
30408;SDS011;17207;52.960;5.916;2022-11-23T17:20:21;8.20;;;5.72;;
30408;SDS011;17207;52.960;5.916;2022-11-23T17:22:47;6.25;;;5.65;;